Bahias De Huatulco, Mexico

12:21 AM CDT on August 31, 2016 (GMT -0500)
Bahias De Huatulco | | Change Station

Elev 469 ft 15.78 °N, 96.26 °W | Updated 35 minutes ago

Overcast
Overcast
73 °F
Feels Like 73 °F
N
0
Wind Variable Wind from North

Today
High -- | Low -- °F
--% Chance of Precip.
Yesterday
High -- | Low -- °F
Precip. -- in
Pressure 29.95 in
Visibility 7.0 miles
Clouds Scattered Clouds 4000 ft
Mostly Cloudy 12000 ft
Overcast 20000 ft
Dew Point 68 °F
Humidity 83%
Rainfall 0.00 in
Snow Depth Not available.
7:12 AM 7:37 PM
Waning Crescent, 1% visible
METAR MMBT 310446Z 00000KT 7SM SCT040 BKN120 OVC200 23/20 A2995 RMK 8/463
Pressure 29.95 in
Visibility 7.0 miles
Clouds Scattered Clouds 4000 ft
Mostly Cloudy 12000 ft
Overcast 20000 ft
Dew Point 68 °F
Humidity 83%
Rainfall 0.00 in
Snow Depth Not available.
7:12 AM 7:37 PM
Waning Crescent, 1% visible
METAR MMBT 310446Z 00000KT 7SM SCT040 BKN120 OVC200 23/20 A2995 RMK 8/463

10-Day Weather Forecast

No radar image for this location.
×

Almanac

Astronomy

Aug. 31, 2016 Rise Set
Actual Time
Civil Twilight
Nautical Twilight
Astronomical Twilight
Moon
Length of Visible Light
Length of Day
Tomorrow will be .
, % of the Moon is Illuminated

Today's Extremes

Country Highs Country Lows

Community

WunderPhotos

Upload Photos

1,936,040 photos uploaded!

WunderBlog® & News

Nearby

Air Quality

  Air Quality AQ Index Pollutant
Not available.

Snow Depth

Station Depth Elevation

Earthquake Activity

City Distance Mag. Time & Date
Minimum magnitude displayed is 2.5.

Coastal Water Temperatures

Place Temperature

Stations

Nearby Weather Stations

Station Location Temp. Windchill Dew Point Humidity Wind Precip. Elev Updated Type